Time;durP1;ratioP1;P1;durP2;ratioP2;P2;SDS_P1;SDS_P2;PMS_P1;PMS_P2;Temp;Humidity;BMP_temperature;BMP_pressure;BME280_temperature;BME280_humidity;BME280_pressure;Samples;Min_cycle;Max_cycle;Signal;HPM_P1;HPM_P2
2021/12/05 00:23:06;;;;;;;5.82;5.22;;;8.10;78.60;;;;;;5018422;28;20040;-80
2021/12/05 00:25:33;;;;;;;7.47;6.47;;;8.20;78.40;;;;;;5033074;28;20076;-80
2021/12/05 00:31:09;;;;;;;13.23;9.73;;;8.20;78.00;;;;;;5030980;28;20041;-80
2021/12/05 01:08:03;;;;;;;7.90;6.82;;;7.80;79.00;;;;;;5022418;28;20061;-80
2021/12/05 01:13:25;;;;;;;7.90;6.18;;;8.00;78.40;;;;;;5024079;28;20091;-80
2021/12/05 01:15:47;;;;;;;7.43;6.03;;;8.10;78.70;;;;;;5031753;28;20478;-80
2021/12/05 01:18:16;;;;;;;8.27;6.15;;;8.10;78.50;;;;;;5032586;28;20056;-80
2021/12/05 01:20:56;;;;;;;8.20;7.00;;;8.10;78.50;;;;;;5032541;28;20037;-80
2021/12/05 01:23:40;;;;;;;11.73;7.60;;;8.20;78.60;;;;;;5032594;28;20110;-80
2021/12/05 01:26:11;;;;;;;10.68;7.68;;;8.20;78.40;;;;;;5031666;28;20061;-78
2021/12/05 01:36:40;;;;;;;9.45;8.40;;;8.20;78.40;;;;;;5032176;28;20068;-79
2021/12/05 02:40:51;;;;;;;10.32;7.18;;;8.10;79.70;;;;;;5034480;28;20045;-79
2021/12/05 02:43:33;;;;;;;10.13;8.23;;;8.10;79.30;;;;;;5035198;28;20033;-79
2021/12/05 02:46:02;;;;;;;10.00;8.18;;;8.20;79.40;;;;;;5035098;28;20458;-79
2021/12/05 02:48:30;;;;;;;8.93;7.45;;;8.30;79.50;;;;;;5034555;28;20034;-79
2021/12/05 02:50:59;;;;;;;8.85;7.45;;;8.30;79.10;;;;;;5034722;28;20034;-79
2021/12/05 02:56:09;;;;;;;10.70;7.78;;;8.30;78.70;;;;;;5034421;28;20064;-78
2021/12/05 03:03:36;;;;;;;7.93;6.95;;;8.20;78.20;;;;;;5034924;28;20375;-80
2021/12/05 03:06:20;;;;;;;10.02;6.93;;;8.20;78.40;;;;;;5034743;28;20478;-80
2021/12/05 03:08:48;;;;;;;11.30;7.28;;;8.20;78.40;;;;;;5033612;28;20113;-80
2021/12/05 03:11:15;;;;;;;10.68;7.40;;;8.20;78.40;;;;;;5034273;28;20041;-81
2021/12/05 03:13:41;;;;;;;9.07;7.63;;;8.20;78.40;;;;;;5026211;28;20069;-80
2021/12/05 03:16:10;;;;;;;11.32;8.48;;;8.20;78.50;;;;;;5010203;28;20109;-80
2021/12/05 03:18:36;;;;;;;12.23;9.00;;;8.10;78.80;;;;;;5014058;28;20062;-80
2021/12/05 03:21:04;;;;;;;17.45;13.40;;;8.10;79.40;;;;;;5014051;28;20394;-80
2021/12/05 03:23:30;;;;;;;16.98;12.90;;;7.80;79.70;;;;;;5000952;28;20585;-79
2021/12/05 03:25:56;;;;;;;11.13;9.07;;;7.40;81.30;;;;;;5014155;28;20066;-79
2021/12/05 03:28:23;;;;;;;13.20;10.63;;;7.30;82.20;;;;;;5012561;28;20069;-80
2021/12/05 03:30:49;;;;;;;10.13;8.20;;;7.40;81.80;;;;;;5014365;28;20041;-80
2021/12/05 03:33:15;;;;;;;9.30;7.93;;;7.70;81.10;;;;;;4996710;28;20042;-80
2021/12/05 03:35:40;;;;;;;9.98;7.85;;;7.80;80.80;;;;;;5013978;28;20038;-79
2021/12/05 03:38:07;;;;;;;8.13;6.32;;;8.00;80.50;;;;;;5014135;28;20558;-80
2021/12/05 03:40:34;;;;;;;8.80;7.30;;;8.10;79.80;;;;;;5014197;28;20419;-80
2021/12/05 03:43:03;;;;;;;9.38;7.88;;;8.20;79.50;;;;;;5013483;28;20409;-80
2021/12/05 03:45:35;;;;;;;9.05;7.03;;;8.20;79.30;;;;;;5014355;28;20051;-80
2021/12/05 03:48:01;;;;;;;8.38;6.72;;;8.30;79.20;;;;;;5006502;28;20626;-80
2021/12/05 03:50:27;;;;;;;8.02;6.50;;;8.30;77.90;;;;;;5013877;28;20485;-80
2021/12/05 03:52:54;;;;;;;8.57;7.22;;;8.30;78.40;;;;;;5005607;28;20109;-79
2021/12/05 03:55:20;;;;;;;8.63;6.93;;;8.30;78.30;;;;;;5014069;28;20386;-80
2021/12/05 03:57:46;;;;;;;11.20;7.88;;;8.20;78.10;;;;;;5010264;28;20050;-79
2021/12/05 04:00:37;;;;;;;8.13;6.80;;;8.30;78.30;;;;;;5014016;28;20042;-80
2021/12/05 04:03:06;;;;;;;8.65;7.47;;;8.30;78.30;;;;;;4992076;28;20041;-80
2021/12/05 04:05:34;;;;;;;9.38;7.70;;;8.30;78.10;;;;;;5013942;28;20065;-80
2021/12/05 04:08:02;;;;;;;9.27;7.40;;;8.30;78.00;;;;;;4994996;28;20045;-80
2021/12/05 04:10:28;;;;;;;9.88;7.93;;;8.30;78.20;;;;;;5013473;28;20104;-79
2021/12/05 04:12:55;;;;;;;9.70;8.35;;;8.10;78.80;;;;;;4995347;28;20457;-79
2021/12/05 04:15:22;;;;;;;8.63;7.18;;;8.10;78.90;;;;;;5012960;28;20046;-79
2021/12/05 04:17:48;;;;;;;8.85;7.03;;;8.10;78.80;;;;;;5012724;28;20038;-80
2021/12/05 04:20:15;;;;;;;8.52;6.93;;;8.10;79.00;;;;;;5015533;28;20046;-80
2021/12/05 04:22:43;;;;;;;8.90;7.65;;;8.10;79.00;;;;;;5006832;28;20038;-80
2021/12/05 04:25:11;;;;;;;8.52;7.30;;;8.10;79.20;;;;;;5020098;28;20042;-80
2021/12/05 04:27:42;;;;;;;8.50;7.40;;;8.20;79.20;;;;;;5005169;28;20033;-80
2021/12/05 04:30:11;;;;;;;8.60;7.43;;;8.20;79.50;;;;;;5012800;28;20442;-79
2021/12/05 04:32:37;;;;;;;10.00;7.88;;;8.30;79.60;;;;;;5008559;28;20427;-80
2021/12/05 04:35:03;;;;;;;9.68;7.82;;;8.30;79.90;;;;;;5013374;28;20041;-80
2021/12/05 04:37:29;;;;;;;10.05;8.15;;;8.30;80.10;;;;;;5025943;28;20065;-80
2021/12/05 04:39:54;;;;;;;10.13;8.27;;;8.30;80.30;;;;;;5011553;28;20431;-80
2021/12/05 04:42:20;;;;;;;9.73;8.27;;;8.30;80.40;;;;;;5022713;28;20042;-80
2021/12/05 04:44:46;;;;;;;9.35;8.05;;;8.30;80.60;;;;;;5018546;28;20056;-80
2021/12/05 04:47:12;;;;;;;10.00;8.13;;;8.30;80.70;;;;;;5013531;28;20049;-80
2021/12/05 04:49:40;;;;;;;9.88;8.15;;;8.30;80.90;;;;;;5016953;28;20368;-80
2021/12/05 04:52:08;;;;;;;8.95;7.50;;;8.30;81.30;;;;;;5013860;28;20038;-80
2021/12/05 04:54:34;;;;;;;11.00;9.48;;;8.30;81.60;;;;;;4991975;28;20037;-80
2021/12/05 04:57:00;;;;;;;13.65;9.48;;;8.20;81.90;;;;;;4996882;28;21011;-79
2021/12/05 04:59:27;;;;;;;10.30;8.25;;;7.90;83.30;;;;;;5006852;28;20120;-80
2021/12/05 05:01:57;;;;;;;9.18;7.93;;;7.90;82.70;;;;;;5012756;28;20078;-80
2021/12/05 05:04:29;;;;;;;14.85;11.25;;;7.90;83.50;;;;;;5016027;28;20529;-80
2021/12/05 05:06:59;;;;;;;10.80;9.00;;;7.80;84.50;;;;;;5021995;28;20512;-80
2021/12/05 05:09:25;;;;;;;11.98;9.30;;;7.70;84.60;;;;;;5012527;28;20077;-80
2021/12/05 05:11:51;;;;;;;9.80;8.77;;;7.70;85.40;;;;;;5012914;28;20046;-80
2021/12/05 05:14:17;;;;;;;10.55;8.60;;;7.60;85.70;;;;;;5026661;28;20469;-80
2021/12/05 05:16:47;;;;;;;11.98;10.20;;;7.60;85.80;;;;;;5031384;28;20367;-80
2021/12/05 05:19:15;;;;;;;14.25;11.68;;;7.50;86.10;;;;;;5028273;28;20461;-80
2021/12/05 05:21:49;;;;;;;11.77;10.18;;;7.30;86.40;;;;;;5032097;28;20033;-80
2021/12/05 05:29:46;;;;;;;20.27;15.50;;;7.00;87.70;;;;;;5032380;28;20132;-80
2021/12/05 05:50:17;;;;;;;12.02;8.95;;;7.20;88.30;;;;;;5028205;28;20026;-80
2021/12/05 05:52:43;;;;;;;11.80;9.57;;;7.30;87.80;;;;;;5033736;28;20467;-79
2021/12/05 05:55:10;;;;;;;11.00;9.80;;;7.40;87.50;;;;;;5035562;28;20038;-80
2021/12/05 05:57:45;;;;;;;11.80;9.48;;;7.50;87.30;;;;;;5035859;28;20035;-80
2021/12/05 06:00:35;;;;;;;13.30;11.85;;;7.40;87.00;;;;;;5036195;28;20040;-79
2021/12/05 06:03:22;;;;;;;17.50;14.82;;;7.50;86.80;;;;;;5033479;28;20037;-80
2021/12/05 06:05:50;;;;;;;13.45;11.63;;;7.30;86.80;;;;;;5017700;28;20047;-80
2021/12/05 06:08:18;;;;;;;19.13;15.30;;;7.20;87.60;;;;;;5035005;28;20038;-80
2021/12/05 06:10:45;;;;;;;13.38;10.57;;;7.20;87.60;;;;;;5034969;28;20049;-79
2021/12/05 06:13:10;;;;;;;13.68;11.50;;;7.30;87.10;;;;;;5034196;28;20069;-79
2021/12/05 06:15:36;;;;;;;12.82;10.15;;;7.30;87.80;;;;;;5035377;28;20068;-79
2021/12/05 06:18:02;;;;;;;13.25;10.40;;;7.30;87.60;;;;;;5017089;28;20049;-79
2021/12/05 06:20:30;;;;;;;14.00;12.18;;;7.40;87.40;;;;;;5029784;28;20477;-80
2021/12/05 06:22:57;;;;;;;15.07;11.90;;;7.40;87.40;;;;;;5031659;28;20044;-82
2021/12/05 06:25:27;;;;;;;17.83;15.43;;;7.30;88.00;;;;;;5030828;28;20501;-82
2021/12/05 06:27:55;;;;;;;13.32;11.23;;;7.20;88.30;;;;;;5033713;28;20033;-82
2021/12/05 06:30:48;;;;;;;18.48;12.68;;;7.00;89.20;;;;;;5017811;28;20037;-82
2021/12/05 06:46:18;;;;;;;14.82;13.10;;;6.90;90.50;;;;;;5041109;28;20037;-82
2021/12/05 06:48:45;;;;;;;16.67;12.38;;;7.00;90.20;;;;;;5038795;28;20045;-87
2021/12/05 06:51:13;;;;;;;26.63;21.33;;;7.10;90.00;;;;;;5017892;28;20057;-84
2021/12/05 06:53:40;;;;;;;23.55;18.00;;;7.00;89.50;;;;;;5015309;28;20037;-83
2021/12/05 06:56:06;;;;;;;23.50;19.52;;;6.80;90.50;;;;;;5025530;28;20474;-82
2021/12/05 06:58:33;;;;;;;19.67;15.57;;;6.90;90.40;;;;;;5016098;28;20382;-84
2021/12/05 07:01:05;;;;;;;17.50;14.85;;;6.80;90.50;;;;;;5034898;28;20572;-85
2021/12/05 07:03:31;;;;;;;26.40;21.67;;;6.90;90.80;;;;;;5034235;28;20037;-85
2021/12/05 07:06:07;;;;;;;21.88;17.05;;;6.90;90.70;;;;;;5038236;28;20048;-80
2021/12/05 07:08:36;;;;;;;33.30;26.88;;;6.90;90.70;;;;;;5017068;28;20052;-81
2021/12/05 07:21:48;;;;;;;16.17;13.45;;;6.90;91.10;;;;;;5019797;28;20034;-82
2021/12/05 07:40:39;;;;;;;29.15;23.15;;;6.50;92.10;;;;;;5033356;28;20103;-84
2021/12/05 07:43:09;;;;;;;18.58;15.70;;;6.40;92.10;;;;;;5012781;28;20041;-80
2021/12/05 07:45:45;;;;;;;19.85;16.77;;;6.60;91.90;;;;;;5030574;28;20148;-80
2021/12/05 07:48:17;;;;;;;29.13;23.67;;;6.60;91.70;;;;;;5029925;28;20034;-79
2021/12/05 07:51:07;;;;;;;28.08;22.38;;;6.80;91.30;;;;;;5010655;28;20093;-79
2021/12/05 07:53:51;;;;;;;23.73;18.38;;;6.80;91.20;;;;;;5030617;28;20486;-79
2021/12/05 07:56:35;;;;;;;19.83;16.35;;;7.00;91.00;;;;;;5030415;28;20080;-80
2021/12/05 08:15:22;;;;;;;17.63;14.68;;;7.20;90.00;;;;;;5035314;28;20052;-79
2021/12/05 08:17:57;;;;;;;21.50;15.95;;;7.30;90.10;;;;;;5034445;28;20482;-79
2021/12/05 08:20:35;;;;;;;19.90;16.33;;;7.30;90.10;;;;;;5014608;28;20390;-79
2021/12/05 08:23:02;;;;;;;20.95;15.68;;;7.40;89.70;;;;;;5032367;28;20459;-79
2021/12/05 08:25:31;;;;;;;22.52;18.02;;;7.50;89.70;;;;;;5014546;28;20508;-79
2021/12/05 08:28:06;;;;;;;29.33;24.00;;;7.40;89.70;;;;;;5032179;28;20145;-79
2021/12/05 08:30:35;;;;;;;33.47;26.73;;;7.10;90.00;;;;;;5032855;28;20021;-79
2021/12/05 08:41:24;;;;;;;19.38;16.55;;;7.10;90.40;;;;;;5030290;28;20033;-79
2021/12/05 08:43:56;;;;;;;16.95;15.13;;;7.30;90.20;;;;;;5026397;28;20072;-79
2021/12/05 10:07:35;;;;;;;36.40;28.08;;;8.50;82.30;;;;;;5029343;28;20438;-82
2021/12/05 10:26:34;;;;;;;23.10;20.23;;;8.10;85.60;;;;;;5030656;28;20115;-82
2021/12/05 10:37:47;;;;;;;23.95;19.48;;;8.50;81.90;;;;;;5029981;28;20083;-85
2021/12/05 10:40:20;;;;;;;23.17;18.60;;;8.70;83.10;;;;;;5034256;28;20038;-85
2021/12/05 10:42:52;;;;;;;26.63;21.30;;;9.00;81.50;;;;;;5033110;28;20485;-86
2021/12/05 10:45:34;;;;;;;23.35;19.77;;;9.10;80.70;;;;;;5016531;28;20052;-88
2021/12/05 10:48:19;;;;;;;22.23;19.70;;;9.30;81.50;;;;;;5032314;28;20045;-80
2021/12/05 10:50:51;;;;;;;20.05;17.90;;;9.60;80.90;;;;;;5033714;28;20491;-79
2021/12/05 10:53:31;;;;;;;37.95;32.20;;;9.80;81.00;;;;;;5022496;28;20469;-80
2021/12/05 10:56:05;;;;;;;35.50;31.70;;;9.70;78.30;;;;;;5015058;28;20494;-79
2021/12/05 10:58:41;;;;;;;21.67;19.40;;;9.50;78.30;;;;;;5031921;28;20034;-80
2021/12/05 11:01:12;;;;;;;24.92;19.77;;;9.60;80.20;;;;;;5029898;28;20107;-80
2021/12/05 11:03:39;;;;;;;33.50;29.23;;;10.00;80.20;;;;;;5033018;28;20121;-80
2021/12/05 11:06:26;;;;;;;23.80;20.88;;;9.60;77.50;;;;;;5014131;28;20375;-80
2021/12/05 11:09:02;;;;;;;29.52;26.38;;;9.70;79.40;;;;;;5014979;28;20413;-80
2021/12/05 11:11:29;;;;;;;21.98;19.55;;;9.90;78.80;;;;;;5031711;28;20493;-85
2021/12/05 11:13:57;;;;;;;24.27;21.58;;;10.00;77.80;;;;;;5029983;28;20045;-84
2021/12/05 11:16:44;;;;;;;22.15;18.75;;;9.80;77.10;;;;;;5026768;28;20030;-84
2021/12/05 11:19:16;;;;;;;22.08;18.80;;;10.10;78.40;;;;;;5004934;28;20116;-89
2021/12/05 11:21:47;;;;;;;31.75;27.58;;;10.40;78.50;;;;;;5025799;28;20121;-84
2021/12/05 11:24:21;;;;;;;22.77;20.27;;;10.70;75.10;;;;;;5011524;28;20033;-84
2021/12/05 11:27:07;;;;;;;22.52;18.55;;;10.90;74.90;;;;;;5033150;28;20497;-83
2021/12/05 11:30:11;;;;;;;27.83;23.65;;;11.10;74.00;;;;;;5026741;28;20367;-79
2021/12/05 11:32:39;;;;;;;18.45;16.17;;;10.50;71.80;;;;;;5032672;28;20508;-81
2021/12/05 11:35:26;;;;;;;18.15;16.25;;;10.30;74.10;;;;;;5032463;28;20034;-82
2021/12/05 11:38:13;;;;;;;30.70;27.33;;;10.70;75.30;;;;;;5032798;28;20378;-82
2021/12/05 11:40:47;;;;;;;21.35;18.45;;;10.60;73.40;;;;;;5032539;28;20073;-82
2021/12/05 11:43:35;;;;;;;22.35;19.17;;;10.50;75.00;;;;;;5015431;28;20045;-82
2021/12/05 11:46:17;;;;;;;30.77;26.88;;;10.20;76.20;;;;;;5033044;28;20430;-82
2021/12/05 11:48:59;;;;;;;34.55;30.77;;;10.00;76.00;;;;;;5026750;28;20049;-81
2021/12/05 11:51:33;;;;;;;25.33;22.35;;;9.20;78.10;;;;;;5032688;28;20029;-81
2021/12/05 11:54:20;;;;;;;23.75;20.70;;;9.30;79.90;;;;;;5027947;28;20052;-81
2021/12/05 11:56:54;;;;;;;24.42;21.17;;;9.30;79.10;;;;;;5027027;28;20041;-81
2021/12/05 11:59:26;;;;;;;21.25;18.90;;;10.00;78.90;;;;;;5027634;28;20176;-81
2021/12/05 12:01:54;;;;;;;23.15;19.48;;;10.50;77.00;;;;;;5018893;28;20048;-81
2021/12/05 12:04:25;;;;;;;17.88;15.93;;;10.10;74.60;;;;;;5029976;28;20113;-82
2021/12/05 12:07:17;;;;;;;32.75;27.52;;;10.30;75.40;;;;;;5010125;28;20128;-81
2021/12/05 12:09:44;;;;;;;23.25;19.50;;;9.90;74.20;;;;;;5013785;28;20041;-81
2021/12/05 12:12:10;;;;;;;28.80;25.45;;;10.20;76.00;;;;;;5010277;28;20041;-81
2021/12/05 12:14:35;;;;;;;26.60;23.60;;;10.70;72.30;;;;;;5030822;28;20053;-81
2021/12/05 12:17:05;;;;;;;30.60;25.67;;;10.80;72.40;;;;;;5029561;28;20056;-82
2021/12/05 12:19:30;;;;;;;21.70;19.45;;;11.10;72.50;;;;;;5021330;28;20042;-82
2021/12/05 12:22:00;;;;;;;21.25;18.95;;;11.70;72.20;;;;;;5023902;28;20403;-81
2021/12/05 12:24:26;;;;;;;28.42;25.42;;;11.90;71.00;;;;;;5014346;28;20052;-81
2021/12/05 12:26:53;;;;;;;21.63;19.33;;;11.30;69.70;;;;;;5003618;28;20488;-82
2021/12/05 12:29:19;;;;;;;19.77;17.73;;;11.30;71.30;;;;;;5025920;28;20033;-82
2021/12/05 12:31:47;;;;;;;20.70;18.45;;;11.30;71.70;;;;;;5012134;28;20045;-81
2021/12/05 12:34:21;;;;;;;21.27;18.70;;;11.40;72.40;;;;;;5024682;28;20068;-82
2021/12/05 12:36:51;;;;;;;21.95;17.73;;;11.50;72.70;;;;;;5029159;28;21565;-81
2021/12/05 12:39:16;;;;;;;24.30;17.33;;;11.60;72.20;;;;;;5029085;28;20492;-82
2021/12/05 12:41:59;;;;;;;19.08;17.08;;;11.60;72.40;;;;;;5029091;28;20151;-81
2021/12/05 12:44:26;;;;;;;18.58;16.67;;;11.60;72.40;;;;;;5029069;28;20088;-81
2021/12/05 12:46:58;;;;;;;19.45;17.35;;;11.60;71.90;;;;;;5028745;28;20044;-81
2021/12/05 12:49:26;;;;;;;17.63;15.73;;;11.60;71.70;;;;;;5029299;28;20492;-81
2021/12/05 12:52:04;;;;;;;18.83;16.83;;;11.50;71.40;;;;;;5029456;28;20048;-81
2021/12/05 12:54:39;;;;;;;19.27;16.98;;;11.40;71.80;;;;;;5020934;28;20036;-81
2021/12/05 12:57:12;;;;;;;19.73;17.45;;;11.40;72.60;;;;;;5027462;28;20458;-82
2021/12/05 12:59:46;;;;;;;19.38;17.38;;;11.40;73.20;;;;;;5035678;28;20072;-81
2021/12/05 13:02:37;;;;;;;19.13;17.13;;;11.40;73.00;;;;;;5027809;28;20026;-81
2021/12/05 13:11:23;;;;;;;18.33;16.08;;;11.20;73.10;;;;;;5029925;28;20101;-82
2021/12/05 13:14:04;;;;;;;19.27;16.58;;;11.20;72.90;;;;;;5030519;28;20045;-82
2021/12/05 13:16:34;;;;;;;19.08;16.92;;;11.00;72.80;;;;;;5029696;28;20771;-82
2021/12/05 13:19:11;;;;;;;18.33;16.35;;;11.00;73.10;;;;;;5027170;28;20045;-82
2021/12/05 13:21:42;;;;;;;19.63;17.17;;;10.90;73.70;;;;;;5027618;28;20113;-82
2021/12/05 13:24:29;;;;;;;19.27;17.17;;;10.90;74.20;;;;;;5009777;28;20068;-81
2021/12/05 13:27:03;;;;;;;19.67;16.83;;;10.80;74.00;;;;;;5024287;28;20049;-82
2021/12/05 13:29:32;;;;;;;20.88;16.80;;;10.80;74.30;;;;;;5009577;28;20092;-81
2021/12/05 13:32:24;;;;;;;19.30;16.65;;;10.70;74.70;;;;;;5029977;28;20324;-81
2021/12/05 13:35:01;;;;;;;19.48;17.35;;;10.70;75.00;;;;;;5028468;28;20057;-80
2021/12/05 13:37:47;;;;;;;19.83;17.65;;;10.50;73.50;;;;;;5008702;28;20049;-82
2021/12/05 13:40:22;;;;;;;18.00;16.10;;;10.40;74.70;;;;;;5026443;28;20063;-82
2021/12/05 13:43:06;;;;;;;19.77;16.98;;;10.50;75.20;;;;;;5023790;28;20029;-82
2021/12/05 13:45:43;;;;;;;19.60;17.08;;;10.50;75.50;;;;;;5008786;28;21164;-82
2021/12/05 13:48:35;;;;;;;19.52;17.00;;;10.60;75.90;;;;;;5012042;28;20037;-81
2021/12/05 13:51:04;;;;;;;21.90;17.90;;;10.60;76.10;;;;;;5021989;28;20104;-79
2021/12/05 13:53:46;;;;;;;19.70;17.05;;;10.70;76.10;;;;;;5031122;28;20038;-79
2021/12/05 13:56:15;;;;;;;21.95;17.48;;;10.70;76.00;;;;;;5030776;28;20096;-78
2021/12/05 13:58:51;;;;;;;21.05;18.67;;;10.80;75.50;;;;;;5033148;28;20370;-78
2021/12/05 14:01:33;;;;;;;23.45;17.85;;;10.80;75.00;;;;;;5027810;28;20041;-78
2021/12/05 14:04:24;;;;;;;20.20;17.92;;;10.90;74.70;;;;;;5028398;28;20061;-80
2021/12/05 14:07:19;;;;;;;19.45;16.52;;;10.90;74.80;;;;;;5030040;28;20049;-81
2021/12/05 14:09:48;;;;;;;18.95;16.95;;;10.90;74.80;;;;;;5010356;28;20494;-81
2021/12/05 14:12:27;;;;;;;18.30;16.40;;;10.80;74.40;;;;;;5017259;28;20037;-81
2021/12/05 14:14:53;;;;;;;18.55;16.35;;;10.80;74.30;;;;;;5008665;28;20106;-81
2021/12/05 14:17:27;;;;;;;18.85;16.23;;;10.80;74.50;;;;;;4995423;28;20474;-81
2021/12/05 14:19:57;;;;;;;18.98;16.25;;;10.70;75.30;;;;;;4988965;28;20038;-81
2021/12/05 14:22:26;;;;;;;22.80;20.35;;;10.70;75.20;;;;;;5010669;28;20093;-81
2021/12/05 14:24:55;;;;;;;21.33;16.92;;;10.60;73.90;;;;;;5014446;28;20042;-81
2021/12/05 14:27:25;;;;;;;24.30;21.38;;;10.50;75.20;;;;;;5014344;28;20501;-81
2021/12/05 14:29:52;;;;;;;19.65;17.35;;;10.20;74.60;;;;;;4993872;28;20568;-81
2021/12/05 14:32:24;;;;;;;19.25;17.20;;;10.00;75.70;;;;;;5014015;28;20486;-83
2021/12/05 14:35:06;;;;;;;17.70;15.65;;;9.90;76.50;;;;;;5013657;28;20041;-83
2021/12/05 14:37:34;;;;;;;25.50;21.48;;;9.70;77.10;;;;;;5015358;28;20474;-83
2021/12/05 14:40:10;;;;;;;19.00;14.63;;;9.70;77.80;;;;;;4989397;28;20505;-81
2021/12/05 14:42:39;;;;;;;18.33;16.25;;;9.60;77.00;;;;;;4994980;28;20168;-83
2021/12/05 14:45:12;;;;;;;17.88;14.07;;;9.60;77.80;;;;;;5013217;28;20427;-77
2021/12/05 14:47:40;;;;;;;17.77;15.52;;;9.60;77.50;;;;;;5010169;28;20045;-76
2021/12/05 14:50:13;;;;;;;17.40;15.30;;;9.70;77.50;;;;;;5009871;28;20056;-76
2021/12/05 14:52:42;;;;;;;21.25;18.85;;;9.70;77.50;;;;;;4978388;28;20486;-76
2021/12/05 14:55:12;;;;;;;16.70;14.93;;;9.60;78.00;;;;;;4987210;28;20050;-75
2021/12/05 14:58:06;;;;;;;16.95;14.65;;;9.60;78.30;;;;;;4988074;28;20062;-78
2021/12/05 15:00:37;;;;;;;16.38;14.38;;;9.70;78.20;;;;;;4977807;28;20046;-78
2021/12/05 15:03:03;;;;;;;19.00;16.60;;;9.70;78.20;;;;;;4988588;28;20064;-78
2021/12/05 15:05:29;;;;;;;16.40;14.45;;;9.70;78.60;;;;;;4989169;28;20046;-75
2021/12/05 15:08:04;;;;;;;26.05;19.15;;;9.70;78.40;;;;;;4997308;28;20034;-77
2021/12/05 15:10:31;;;;;;;15.82;13.85;;;9.60;78.70;;;;;;4997595;28;20037;-77
2021/12/05 15:12:57;;;;;;;24.90;22.25;;;9.50;79.10;;;;;;5015424;28;20438;-78
2021/12/05 15:15:27;;;;;;;25.90;23.20;;;9.50;78.50;;;;;;5037040;28;20029;-77
2021/12/05 15:17:54;;;;;;;20.30;16.70;;;9.20;79.40;;;;;;5035616;28;20533;-84
2021/12/05 15:20:23;;;;;;;28.95;25.83;;;9.00;80.70;;;;;;5036750;28;20041;-83
2021/12/05 15:23:12;;;;;;;26.70;23.02;;;8.90;81.10;;;;;;5037161;28;20042;-82
2021/12/05 15:25:40;;;;;;;28.95;25.83;;;8.90;82.20;;;;;;5028948;28;20081;-82
2021/12/05 15:28:12;;;;;;;30.80;26.45;;;9.00;81.80;;;;;;5035609;28;20044;-83
2021/12/05 15:30:41;;;;;;;19.13;17.13;;;8.90;82.50;;;;;;5035018;28;20522;-82
2021/12/05 15:33:28;;;;;;;18.38;16.45;;;8.90;83.10;;;;;;5034939;28;20040;-82
2021/12/05 15:36:10;;;;;;;24.27;21.52;;;8.80;84.60;;;;;;5038356;28;20447;-82
2021/12/05 15:38:36;;;;;;;28.15;24.25;;;8.90;85.10;;;;;;5013742;28;20045;-82
2021/12/05 15:41:06;;;;;;;27.13;22.98;;;8.60;86.90;;;;;;5057062;28;20045;-82
2021/12/05 15:43:36;;;;;;;24.58;21.45;;;8.30;88.90;;;;;;5048533;28;20188;-82
2021/12/05 15:46:04;;;;;;;19.23;15.53;;;8.00;90.30;;;;;;5041612;28;20479;-82
2021/12/05 15:48:35;;;;;;;19.70;17.60;;;8.10;90.80;;;;;;5011178;28;20490;-82
2021/12/05 15:51:12;;;;;;;17.70;15.55;;;8.00;90.90;;;;;;5036230;28;20037;-82
2021/12/05 15:53:38;;;;;;;16.75;12.75;;;8.20;90.60;;;;;;5015406;28;20033;-82
2021/12/05 15:56:08;;;;;;;12.63;10.70;;;8.00;91.20;;;;;;5034618;28;20486;-83
2021/12/05 15:58:46;;;;;;;15.57;12.57;;;8.10;91.20;;;;;;5030311;28;20033;-81
2021/12/05 16:01:21;;;;;;;19.73;14.25;;;8.30;90.80;;;;;;5033152;28;20164;-82
2021/12/05 16:03:50;;;;;;;15.45;13.27;;;8.40;90.70;;;;;;5017061;28;20040;-82
2021/12/05 16:06:18;;;;;;;16.55;14.77;;;8.00;91.30;;;;;;5030001;28;20248;-80
2021/12/05 16:08:49;;;;;;;10.73;8.32;;;8.10;91.40;;;;;;5025552;28;20076;-77
2021/12/05 16:11:20;;;;;;;12.35;10.00;;;8.20;91.20;;;;;;5034280;28;20037;-77
2021/12/05 16:13:49;;;;;;;14.05;10.95;;;8.10;91.40;;;;;;5032269;28;20049;-77
2021/12/05 16:16:25;;;;;;;13.05;11.38;;;8.00;91.50;;;;;;5036661;28;20038;-77
2021/12/05 16:18:55;;;;;;;12.88;10.75;;;7.90;91.60;;;;;;5030547;28;20116;-77
2021/12/05 17:08:26;;;;;;;1.10;0.80;;;8.00;87.20;;;;;;5032444;28;20056;-79
2021/12/05 17:11:01;;;;;;;1.00;0.90;;;8.10;86.30;;;;;;5032578;28;20041;-79
2021/12/05 17:13:33;;;;;;;0.82;0.60;;;8.10;86.40;;;;;;5015211;28;20347;-80
2021/12/05 17:16:20;;;;;;;2.22;1.00;;;8.10;87.10;;;;;;5036310;28;20033;-80
2021/12/05 17:19:04;;;;;;;0.90;0.70;;;8.00;86.80;;;;;;5033257;28;20444;-79
2021/12/05 17:21:38;;;;;;;0.73;0.73;;;8.00;86.40;;;;;;5030852;28;20051;-77
2021/12/05 17:24:09;;;;;;;0.70;0.50;;;7.90;87.00;;;;;;5015187;28;20409;-77
2021/12/05 17:26:38;;;;;;;0.77;0.75;;;8.00;87.10;;;;;;5031616;28;20099;-77
2021/12/05 17:29:24;;;;;;;1.20;0.50;;;8.00;86.00;;;;;;5031402;28;20377;-77
2021/12/05 17:31:53;;;;;;;1.50;0.90;;;8.10;86.20;;;;;;5019874;28;20038;-77
2021/12/05 17:34:31;;;;;;;0.82;0.60;;;8.10;85.50;;;;;;5030485;28;20045;-77
2021/12/05 17:37:05;;;;;;;0.60;0.50;;;7.80;85.90;;;;;;5025493;28;20121;-77
2021/12/05 17:39:34;;;;;;;0.85;0.75;;;7.90;86.50;;;;;;5013813;28;20045;-77
2021/12/05 17:42:09;;;;;;;0.50;0.40;;;7.70;86.10;;;;;;5036235;28;20029;-77
2021/12/05 17:44:35;;;;;;;0.82;0.52;;;7.90;86.60;;;;;;5028298;28;20076;-77
2021/12/05 17:47:05;;;;;;;0.70;0.40;;;7.90;86.30;;;;;;5038002;28;20064;-76
2021/12/05 17:49:33;;;;;;;3.47;0.82;;;8.10;86.20;;;;;;5043058;28;20042;-76
2021/12/05 17:52:00;;;;;;;1.25;0.80;;;7.60;86.80;;;;;;5035749;28;20057;-83
2021/12/05 17:54:36;;;;;;;0.80;0.65;;;7.60;87.80;;;;;;5018515;28;21458;-83
2021/12/05 17:57:14;;;;;;;1.38;0.60;;;7.50;88.80;;;;;;5020065;28;20151;-84
2021/12/05 18:00:12;;;;;;;0.68;0.40;;;7.80;88.30;;;;;;5034683;28;20056;-79
2021/12/05 18:02:44;;;;;;;2.65;0.63;;;7.80;87.90;;;;;;5042798;28;20033;-78
2021/12/05 18:05:13;;;;;;;1.23;0.85;;;8.00;87.40;;;;;;5018066;28;20037;-79
2021/12/05 18:07:39;;;;;;;3.33;1.30;;;8.30;87.10;;;;;;5035557;28;20045;-79
2021/12/05 18:10:05;;;;;;;1.00;0.80;;;8.40;85.40;;;;;;5034349;28;20367;-79
2021/12/05 18:12:35;;;;;;;1.05;0.80;;;8.50;85.60;;;;;;5033456;28;20072;-80
2021/12/05 18:15:05;;;;;;;0.85;0.77;;;8.40;85.20;;;;;;5016972;28;20041;-79
2021/12/05 18:17:31;;;;;;;1.15;1.05;;;8.50;85.60;;;;;;5035087;28;20538;-79
2021/12/05 18:19:56;;;;;;;2.42;1.60;;;8.10;85.60;;;;;;5036461;28;20120;-79
2021/12/05 18:22:22;;;;;;;2.53;1.70;;;7.60;87.80;;;;;;5035227;28;20033;-79
2021/12/05 18:24:48;;;;;;;5.75;1.55;;;7.40;89.30;;;;;;5017109;28;20187;-78
2021/12/05 18:27:15;;;;;;;1.48;1.00;;;7.20;90.20;;;;;;5035226;28;20041;-78
2021/12/05 18:29:41;;;;;;;1.30;1.17;;;7.50;90.20;;;;;;5035142;28;20045;-79
2021/12/05 18:32:10;;;;;;;2.58;1.33;;;7.30;90.00;;;;;;5034777;28;20469;-79
2021/12/05 18:34:36;;;;;;;1.73;1.10;;;7.10;90.30;;;;;;5035878;28;20040;-79
2021/12/05 18:37:05;;;;;;;1.17;0.98;;;7.10;91.00;;;;;;5034444;28;20037;-80
2021/12/05 18:39:41;;;;;;;1.40;1.17;;;7.20;90.80;;;;;;5033359;28;20037;-77
2021/12/05 18:42:11;;;;;;;2.13;1.00;;;7.40;90.40;;;;;;5011224;28;20433;-77
2021/12/05 18:44:46;;;;;;;0.82;0.80;;;7.60;90.00;;;;;;5037926;28;20052;-77
2021/12/05 18:47:13;;;;;;;1.95;1.33;;;7.80;89.60;;;;;;5035444;28;20045;-77
2021/12/05 18:49:39;;;;;;;2.00;1.30;;;7.80;88.70;;;;;;5017307;28;20048;-77
2021/12/05 18:52:07;;;;;;;1.55;1.15;;;7.90;88.70;;;;;;5037645;28;20025;-77
2021/12/05 18:54:35;;;;;;;1.63;1.30;;;8.00;88.50;;;;;;5036619;28;20037;-77
2021/12/05 18:57:02;;;;;;;2.15;1.10;;;7.90;88.50;;;;;;5036288;28;20026;-77
2021/12/05 18:59:31;;;;;;;4.20;1.60;;;8.10;88.00;;;;;;5035073;28;20120;-77
2021/12/05 19:04:47;;;;;;;2.08;1.58;;;7.80;88.40;;;;;;5034964;28;20363;-78
2021/12/05 19:07:25;;;;;;;1.70;1.58;;;7.50;89.30;;;;;;5036961;28;20068;-77
2021/12/05 19:12:22;;;;;;;6.72;1.80;;;7.10;90.80;;;;;;5034166;28;20469;-77
2021/12/05 19:14:51;;;;;;;1.63;1.50;;;7.30;90.60;;;;;;5031893;28;20089;-77
2021/12/05 19:17:31;;;;;;;3.72;1.70;;;7.50;90.40;;;;;;5033123;28;20052;-77
2021/12/05 19:20:04;;;;;;;2.70;1.90;;;7.40;90.00;;;;;;5032026;28;20116;-77
2021/12/05 19:22:33;;;;;;;5.03;2.45;;;7.30;90.30;;;;;;5015245;28;20041;-78
2021/12/05 19:25:09;;;;;;;2.17;1.85;;;7.40;90.10;;;;;;5024723;28;20381;-77
2021/12/05 19:27:35;;;;;;;3.90;2.67;;;7.40;90.50;;;;;;5030132;28;20432;-78
2021/12/05 19:30:01;;;;;;;2.75;1.98;;;7.40;90.20;;;;;;5013582;28;20037;-77
2021/12/05 19:32:28;;;;;;;3.03;2.38;;;7.30;90.40;;;;;;5034714;28;20501;-78
2021/12/05 19:34:54;;;;;;;5.43;3.35;;;7.20;90.40;;;;;;5032965;28;20084;-77
2021/12/05 19:37:21;;;;;;;3.38;2.70;;;7.20;90.60;;;;;;5021412;28;20128;-77
2021/12/05 19:39:47;;;;;;;3.45;2.58;;;7.20;90.30;;;;;;5030339;28;20059;-77